sensor_id;sensor_type;location;lat;lon;timestamp;P1;durP1;ratioP1;P2;durP2;ratioP2
65461;SDS011;53236;43.666;18.444;2023-02-28T00:00:32;23.40;;;15.30;;
65461;SDS011;53236;43.666;18.444;2023-02-28T00:02:59;22.87;;;15.83;;
65461;SDS011;53236;43.666;18.444;2023-02-28T00:05:26;24.23;;;16.17;;
65461;SDS011;53236;43.666;18.444;2023-02-28T00:07:52;29.13;;;19.83;;
65461;SDS011;53236;43.666;18.444;2023-02-28T00:10:19;17.93;;;12.27;;
65461;SDS011;53236;43.666;18.444;2023-02-28T00:12:50;19.17;;;14.10;;
65461;SDS011;53236;43.666;18.444;2023-02-28T00:15:17;19.00;;;12.20;;
65461;SDS011;53236;43.666;18.444;2023-02-28T00:17:43;15.43;;;10.93;;
65461;SDS011;53236;43.666;18.444;2023-02-28T00:20:09;17.07;;;12.40;;
65461;SDS011;53236;43.666;18.444;2023-02-28T00:22:40;16.57;;;12.73;;
65461;SDS011;53236;43.666;18.444;2023-02-28T00:25:12;19.23;;;12.67;;
65461;SDS011;53236;43.666;18.444;2023-02-28T00:27:39;18.33;;;12.87;;
65461;SDS011;53236;43.666;18.444;2023-02-28T00:30:07;76.80;;;43.80;;
65461;SDS011;53236;43.666;18.444;2023-02-28T00:32:36;17.03;;;12.20;;
65461;SDS011;53236;43.666;18.444;2023-02-28T00:35:03;18.17;;;12.77;;
65461;SDS011;53236;43.666;18.444;2023-02-28T00:37:29;15.50;;;11.10;;
65461;SDS011;53236;43.666;18.444;2023-02-28T00:39:55;116.27;;;58.57;;
65461;SDS011;53236;43.666;18.444;2023-02-28T00:42:21;35.70;;;22.00;;
65461;SDS011;53236;43.666;18.444;2023-02-28T00:44:47;19.10;;;13.13;;
65461;SDS011;53236;43.666;18.444;2023-02-28T00:47:13;15.73;;;11.53;;
65461;SDS011;53236;43.666;18.444;2023-02-28T00:49:39;22.63;;;13.43;;
65461;SDS011;53236;43.666;18.444;2023-02-28T00:52:05;24.83;;;15.80;;
65461;SDS011;53236;43.666;18.444;2023-02-28T00:54:31;29.30;;;17.23;;
65461;SDS011;53236;43.666;18.444;2023-02-28T00:56:56;32.43;;;18.10;;
65461;SDS011;53236;43.666;18.444;2023-02-28T00:59:22;28.37;;;17.20;;
65461;SDS011;53236;43.666;18.444;2023-02-28T01:01:48;32.40;;;19.03;;
65461;SDS011;53236;43.666;18.444;2023-02-28T01:04:14;28.07;;;16.77;;
65461;SDS011;53236;43.666;18.444;2023-02-28T01:06:40;27.93;;;17.60;;
65461;SDS011;53236;43.666;18.444;2023-02-28T01:09:06;26.53;;;16.30;;
65461;SDS011;53236;43.666;18.444;2023-02-28T01:11:33;22.20;;;14.50;;
65461;SDS011;53236;43.666;18.444;2023-02-28T01:13:59;18.57;;;12.27;;
65461;SDS011;53236;43.666;18.444;2023-02-28T01:16:25;50.97;;;26.03;;
65461;SDS011;53236;43.666;18.444;2023-02-28T01:18:51;24.93;;;14.70;;
65461;SDS011;53236;43.666;18.444;2023-02-28T01:21:18;26.20;;;15.23;;
65461;SDS011;53236;43.666;18.444;2023-02-28T01:23:45;21.13;;;13.17;;
65461;SDS011;53236;43.666;18.444;2023-02-28T01:26:15;18.60;;;12.20;;
65461;SDS011;53236;43.666;18.444;2023-02-28T01:28:42;20.93;;;12.47;;
65461;SDS011;53236;43.666;18.444;2023-02-28T01:31:08;19.87;;;12.27;;
65461;SDS011;53236;43.666;18.444;2023-02-28T01:33:35;16.13;;;10.73;;
65461;SDS011;53236;43.666;18.444;2023-02-28T01:36:05;17.83;;;11.57;;
65461;SDS011;53236;43.666;18.444;2023-02-28T01:38:35;17.10;;;11.37;;
65461;SDS011;53236;43.666;18.444;2023-02-28T01:41:01;17.60;;;10.90;;
65461;SDS011;53236;43.666;18.444;2023-02-28T01:43:28;17.47;;;12.17;;
65461;SDS011;53236;43.666;18.444;2023-02-28T01:45:56;17.40;;;11.37;;
65461;SDS011;53236;43.666;18.444;2023-02-28T01:48:27;17.13;;;11.13;;
65461;SDS011;53236;43.666;18.444;2023-02-28T01:50:58;15.10;;;10.60;;
65461;SDS011;53236;43.666;18.444;2023-02-28T01:53:35;42.30;;;27.73;;
65461;SDS011;53236;43.666;18.444;2023-02-28T01:56:09;27.43;;;17.80;;
65461;SDS011;53236;43.666;18.444;2023-02-28T01:58:37;18.20;;;12.13;;
65461;SDS011;53236;43.666;18.444;2023-02-28T02:01:03;19.97;;;13.47;;
65461;SDS011;53236;43.666;18.444;2023-02-28T02:03:29;18.60;;;13.47;;
65461;SDS011;53236;43.666;18.444;2023-02-28T02:05:56;20.77;;;13.80;;
65461;SDS011;53236;43.666;18.444;2023-02-28T02:08:25;18.90;;;13.03;;
65461;SDS011;53236;43.666;18.444;2023-02-28T02:10:57;18.73;;;12.37;;
65461;SDS011;53236;43.666;18.444;2023-02-28T02:27:34;22.53;;;13.47;;
65461;SDS011;53236;43.666;18.444;2023-02-28T02:30:08;24.47;;;14.43;;
65461;SDS011;53236;43.666;18.444;2023-02-28T02:38:58;27.13;;;17.47;;
65461;SDS011;53236;43.666;18.444;2023-02-28T02:41:51;20.77;;;13.33;;
65461;SDS011;53236;43.666;18.444;2023-02-28T02:44:20;19.43;;;13.50;;
65461;SDS011;53236;43.666;18.444;2023-02-28T02:47:09;19.87;;;13.03;;
65461;SDS011;53236;43.666;18.444;2023-02-28T02:49:39;22.23;;;13.57;;
65461;SDS011;53236;43.666;18.444;2023-02-28T02:52:10;22.10;;;14.90;;
65461;SDS011;53236;43.666;18.444;2023-02-28T02:54:40;23.47;;;15.50;;
65461;SDS011;53236;43.666;18.444;2023-02-28T02:57:11;21.07;;;15.53;;
65461;SDS011;53236;43.666;18.444;2023-02-28T02:59:43;20.30;;;14.27;;
65461;SDS011;53236;43.666;18.444;2023-02-28T03:02:11;21.80;;;15.10;;
65461;SDS011;53236;43.666;18.444;2023-02-28T03:04:43;20.33;;;13.83;;
65461;SDS011;53236;43.666;18.444;2023-02-28T03:07:13;22.57;;;15.83;;
65461;SDS011;53236;43.666;18.444;2023-02-28T03:09:39;22.10;;;15.00;;
65461;SDS011;53236;43.666;18.444;2023-02-28T03:12:06;24.23;;;16.13;;
65461;SDS011;53236;43.666;18.444;2023-02-28T03:14:49;23.07;;;15.50;;
65461;SDS011;53236;43.666;18.444;2023-02-28T03:20:36;34.50;;;22.10;;
65461;SDS011;53236;43.666;18.444;2023-02-28T03:31:03;22.67;;;15.17;;
65461;SDS011;53236;43.666;18.444;2023-02-28T03:33:58;26.80;;;15.93;;
65461;SDS011;53236;43.666;18.444;2023-02-28T03:36:37;23.37;;;15.90;;
65461;SDS011;53236;43.666;18.444;2023-02-28T03:39:20;28.77;;;17.50;;
65461;SDS011;53236;43.666;18.444;2023-02-28T03:42:00;25.40;;;16.80;;
65461;SDS011;53236;43.666;18.444;2023-02-28T03:44:32;23.30;;;16.40;;
65461;SDS011;53236;43.666;18.444;2023-02-28T03:47:03;22.83;;;15.70;;
65461;SDS011;53236;43.666;18.444;2023-02-28T03:49:38;22.27;;;15.63;;
65461;SDS011;53236;43.666;18.444;2023-02-28T03:52:10;29.90;;;17.20;;
65461;SDS011;53236;43.666;18.444;2023-02-28T03:54:44;24.13;;;16.97;;
65461;SDS011;53236;43.666;18.444;2023-02-28T03:59:59;24.43;;;15.63;;
65461;SDS011;53236;43.666;18.444;2023-02-28T04:02:42;22.63;;;15.83;;
65461;SDS011;53236;43.666;18.444;2023-02-28T04:05:08;26.40;;;16.57;;
65461;SDS011;53236;43.666;18.444;2023-02-28T04:07:34;24.77;;;16.73;;
65461;SDS011;53236;43.666;18.444;2023-02-28T04:09:59;24.83;;;16.27;;
65461;SDS011;53236;43.666;18.444;2023-02-28T04:12:25;24.03;;;17.00;;
65461;SDS011;53236;43.666;18.444;2023-02-28T04:14:51;24.13;;;17.03;;
65461;SDS011;53236;43.666;18.444;2023-02-28T04:17:17;25.27;;;16.57;;
65461;SDS011;53236;43.666;18.444;2023-02-28T04:19:43;26.10;;;17.03;;
65461;SDS011;53236;43.666;18.444;2023-02-28T04:22:09;24.23;;;16.10;;
65461;SDS011;53236;43.666;18.444;2023-02-28T04:24:35;23.10;;;14.53;;
65461;SDS011;53236;43.666;18.444;2023-02-28T04:27:02;22.60;;;14.73;;
65461;SDS011;53236;43.666;18.444;2023-02-28T04:29:31;21.00;;;13.43;;
65461;SDS011;53236;43.666;18.444;2023-02-28T04:31:57;21.90;;;14.50;;
65461;SDS011;53236;43.666;18.444;2023-02-28T04:34:25;19.80;;;13.37;;
65461;SDS011;53236;43.666;18.444;2023-02-28T04:36:51;19.50;;;13.13;;
65461;SDS011;53236;43.666;18.444;2023-02-28T04:39:20;19.63;;;13.03;;
65461;SDS011;53236;43.666;18.444;2023-02-28T04:41:49;18.63;;;12.67;;
65461;SDS011;53236;43.666;18.444;2023-02-28T04:44:15;20.00;;;12.87;;
65461;SDS011;53236;43.666;18.444;2023-02-28T04:46:41;19.67;;;14.10;;
65461;SDS011;53236;43.666;18.444;2023-02-28T04:49:08;20.53;;;13.57;;
65461;SDS011;53236;43.666;18.444;2023-02-28T04:51:37;19.50;;;13.17;;
65461;SDS011;53236;43.666;18.444;2023-02-28T04:54:03;20.07;;;14.07;;
65461;SDS011;53236;43.666;18.444;2023-02-28T04:56:29;18.60;;;12.60;;
65461;SDS011;53236;43.666;18.444;2023-02-28T04:58:54;20.03;;;13.90;;
65461;SDS011;53236;43.666;18.444;2023-02-28T05:03:50;19.37;;;13.70;;
65461;SDS011;53236;43.666;18.444;2023-02-28T05:06:17;23.40;;;14.87;;
65461;SDS011;53236;43.666;18.444;2023-02-28T05:08:43;21.83;;;14.63;;
65461;SDS011;53236;43.666;18.444;2023-02-28T05:11:19;21.33;;;14.90;;
65461;SDS011;53236;43.666;18.444;2023-02-28T05:13:50;21.00;;;14.10;;
65461;SDS011;53236;43.666;18.444;2023-02-28T05:16:17;20.87;;;14.10;;
65461;SDS011;53236;43.666;18.444;2023-02-28T05:18:43;131.53;;;76.37;;
65461;SDS011;53236;43.666;18.444;2023-02-28T05:22:10;113.60;;;70.13;;
65461;SDS011;53236;43.666;18.444;2023-02-28T05:24:14;78.77;;;48.93;;
65461;SDS011;53236;43.666;18.444;2023-02-28T05:26:40;49.03;;;32.10;;
65461;SDS011;53236;43.666;18.444;2023-02-28T05:29:07;37.27;;;23.80;;
65461;SDS011;53236;43.666;18.444;2023-02-28T05:31:34;48.77;;;29.20;;
65461;SDS011;53236;43.666;18.444;2023-02-28T05:34:00;61.03;;;36.27;;
65461;SDS011;53236;43.666;18.444;2023-02-28T05:36:26;63.93;;;36.13;;
65461;SDS011;53236;43.666;18.444;2023-02-28T05:38:52;56.00;;;32.73;;
65461;SDS011;53236;43.666;18.444;2023-02-28T05:41:18;44.70;;;28.17;;
65461;SDS011;53236;43.666;18.444;2023-02-28T05:43:45;50.33;;;30.50;;
65461;SDS011;53236;43.666;18.444;2023-02-28T05:46:11;57.70;;;33.50;;
65461;SDS011;53236;43.666;18.444;2023-02-28T05:48:38;42.27;;;26.13;;
65461;SDS011;53236;43.666;18.444;2023-02-28T05:51:05;38.63;;;24.30;;
65461;SDS011;53236;43.666;18.444;2023-02-28T05:53:32;31.23;;;20.63;;
65461;SDS011;53236;43.666;18.444;2023-02-28T05:55:58;41.60;;;24.53;;
65461;SDS011;53236;43.666;18.444;2023-02-28T05:58:24;37.60;;;24.97;;
65461;SDS011;53236;43.666;18.444;2023-02-28T06:00:59;43.73;;;27.10;;
65461;SDS011;53236;43.666;18.444;2023-02-28T06:03:25;41.13;;;24.93;;
65461;SDS011;53236;43.666;18.444;2023-02-28T06:05:52;46.30;;;28.90;;
65461;SDS011;53236;43.666;18.444;2023-02-28T06:08:18;43.63;;;27.07;;
65461;SDS011;53236;43.666;18.444;2023-02-28T06:10:44;37.63;;;25.93;;
65461;SDS011;53236;43.666;18.444;2023-02-28T06:13:10;42.60;;;28.27;;
65461;SDS011;53236;43.666;18.444;2023-02-28T06:15:37;40.57;;;26.90;;
65461;SDS011;53236;43.666;18.444;2023-02-28T06:18:03;38.17;;;24.67;;
65461;SDS011;53236;43.666;18.444;2023-02-28T06:20:29;35.10;;;22.53;;
65461;SDS011;53236;43.666;18.444;2023-02-28T06:22:55;35.53;;;22.87;;
65461;SDS011;53236;43.666;18.444;2023-02-28T06:25:23;40.10;;;25.30;;
65461;SDS011;53236;43.666;18.444;2023-02-28T06:27:50;36.03;;;23.33;;
65461;SDS011;53236;43.666;18.444;2023-02-28T06:30:16;34.30;;;21.80;;
65461;SDS011;53236;43.666;18.444;2023-02-28T06:32:42;31.43;;;21.23;;
65461;SDS011;53236;43.666;18.444;2023-02-28T06:35:08;29.03;;;20.57;;
65461;SDS011;53236;43.666;18.444;2023-02-28T06:37:34;26.63;;;16.63;;
65461;SDS011;53236;43.666;18.444;2023-02-28T06:39:59;31.40;;;19.37;;
65461;SDS011;53236;43.666;18.444;2023-02-28T06:42:25;36.37;;;20.63;;
65461;SDS011;53236;43.666;18.444;2023-02-28T06:44:53;36.47;;;20.03;;
65461;SDS011;53236;43.666;18.444;2023-02-28T06:47:20;33.53;;;19.70;;
65461;SDS011;53236;43.666;18.444;2023-02-28T06:49:46;39.67;;;24.67;;
65461;SDS011;53236;43.666;18.444;2023-02-28T06:52:12;34.63;;;23.20;;
65461;SDS011;53236;43.666;18.444;2023-02-28T06:54:37;37.83;;;26.60;;
65461;SDS011;53236;43.666;18.444;2023-02-28T06:57:03;33.37;;;23.03;;
65461;SDS011;53236;43.666;18.444;2023-02-28T06:59:29;26.50;;;18.97;;
65461;SDS011;53236;43.666;18.444;2023-02-28T07:01:55;21.87;;;15.33;;
65461;SDS011;53236;43.666;18.444;2023-02-28T07:04:21;25.27;;;18.27;;
65461;SDS011;53236;43.666;18.444;2023-02-28T07:06:47;22.93;;;16.57;;
65461;SDS011;53236;43.666;18.444;2023-02-28T07:09:13;21.50;;;14.43;;
65461;SDS011;53236;43.666;18.444;2023-02-28T07:11:39;22.03;;;15.03;;
65461;SDS011;53236;43.666;18.444;2023-02-28T07:14:11;19.10;;;13.47;;
65461;SDS011;53236;43.666;18.444;2023-02-28T07:16:37;16.53;;;10.97;;
65461;SDS011;53236;43.666;18.444;2023-02-28T07:19:03;17.47;;;11.40;;
65461;SDS011;53236;43.666;18.444;2023-02-28T07:21:28;32.33;;;21.23;;
65461;SDS011;53236;43.666;18.444;2023-02-28T07:23:55;26.83;;;17.83;;
65461;SDS011;53236;43.666;18.444;2023-02-28T07:26:21;24.60;;;16.83;;
65461;SDS011;53236;43.666;18.444;2023-02-28T07:28:47;22.57;;;15.97;;
65461;SDS011;53236;43.666;18.444;2023-02-28T07:31:14;18.00;;;12.17;;
65461;SDS011;53236;43.666;18.444;2023-02-28T07:33:41;17.13;;;10.73;;
65461;SDS011;53236;43.666;18.444;2023-02-28T07:36:09;14.97;;;10.03;;
65461;SDS011;53236;43.666;18.444;2023-02-28T07:38:40;16.87;;;11.70;;
65461;SDS011;53236;43.666;18.444;2023-02-28T07:41:09;14.67;;;10.27;;
65461;SDS011;53236;43.666;18.444;2023-02-28T07:43:35;14.90;;;10.10;;
65461;SDS011;53236;43.666;18.444;2023-02-28T07:46:02;15.60;;;11.20;;
65461;SDS011;53236;43.666;18.444;2023-02-28T07:48:28;18.33;;;11.03;;
65461;SDS011;53236;43.666;18.444;2023-02-28T07:50:57;18.10;;;11.83;;
65461;SDS011;53236;43.666;18.444;2023-02-28T07:53:24;16.50;;;12.30;;
65461;SDS011;53236;43.666;18.444;2023-02-28T07:55:50;21.20;;;15.40;;
65461;SDS011;53236;43.666;18.444;2023-02-28T07:58:16;22.20;;;14.00;;
65461;SDS011;53236;43.666;18.444;2023-02-28T08:00:41;19.20;;;13.50;;
65461;SDS011;53236;43.666;18.444;2023-02-28T08:03:09;29.73;;;17.67;;
65461;SDS011;53236;43.666;18.444;2023-02-28T08:05:40;20.90;;;13.97;;
65461;SDS011;53236;43.666;18.444;2023-02-28T08:08:06;17.67;;;12.83;;
65461;SDS011;53236;43.666;18.444;2023-02-28T08:10:32;23.60;;;16.93;;
65461;SDS011;53236;43.666;18.444;2023-02-28T08:12:58;27.07;;;17.93;;
65461;SDS011;53236;43.666;18.444;2023-02-28T08:15:25;20.80;;;14.83;;
65461;SDS011;53236;43.666;18.444;2023-02-28T08:17:50;19.73;;;13.50;;
65461;SDS011;53236;43.666;18.444;2023-02-28T08:20:16;23.40;;;15.50;;
65461;SDS011;53236;43.666;18.444;2023-02-28T08:22:42;22.20;;;15.33;;
65461;SDS011;53236;43.666;18.444;2023-02-28T08:25:07;19.27;;;14.77;;
65461;SDS011;53236;43.666;18.444;2023-02-28T08:27:34;22.40;;;16.97;;
65461;SDS011;53236;43.666;18.444;2023-02-28T08:30:00;22.60;;;16.53;;
65461;SDS011;53236;43.666;18.444;2023-02-28T08:32:25;19.13;;;13.40;;
65461;SDS011;53236;43.666;18.444;2023-02-28T08:34:51;17.40;;;13.40;;
65461;SDS011;53236;43.666;18.444;2023-02-28T08:37:17;22.03;;;16.43;;
65461;SDS011;53236;43.666;18.444;2023-02-28T08:39:42;16.57;;;11.87;;
65461;SDS011;53236;43.666;18.444;2023-02-28T08:42:08;16.27;;;11.60;;
65461;SDS011;53236;43.666;18.444;2023-02-28T08:44:34;17.30;;;12.60;;
65461;SDS011;53236;43.666;18.444;2023-02-28T08:46:59;20.00;;;14.90;;
65461;SDS011;53236;43.666;18.444;2023-02-28T08:49:25;20.03;;;13.60;;
65461;SDS011;53236;43.666;18.444;2023-02-28T08:51:51;26.60;;;19.57;;
65461;SDS011;53236;43.666;18.444;2023-02-28T08:54:17;20.53;;;14.90;;
65461;SDS011;53236;43.666;18.444;2023-02-28T08:56:44;23.90;;;16.90;;
65461;SDS011;53236;43.666;18.444;2023-02-28T08:59:12;14.77;;;11.03;;
65461;SDS011;53236;43.666;18.444;2023-02-28T09:01:38;15.63;;;11.83;;
65461;SDS011;53236;43.666;18.444;2023-02-28T09:04:03;19.23;;;12.97;;
65461;SDS011;53236;43.666;18.444;2023-02-28T09:06:31;27.57;;;18.80;;
65461;SDS011;53236;43.666;18.444;2023-02-28T09:08:57;16.47;;;12.07;;
65461;SDS011;53236;43.666;18.444;2023-02-28T09:11:24;24.50;;;16.17;;
65461;SDS011;53236;43.666;18.444;2023-02-28T09:13:50;20.90;;;14.63;;
65461;SDS011;53236;43.666;18.444;2023-02-28T09:16:16;18.30;;;12.60;;
65461;SDS011;53236;43.666;18.444;2023-02-28T09:18:42;19.33;;;13.40;;
65461;SDS011;53236;43.666;18.444;2023-02-28T09:21:09;26.00;;;16.07;;
65461;SDS011;53236;43.666;18.444;2023-02-28T09:23:40;21.43;;;16.13;;
65461;SDS011;53236;43.666;18.444;2023-02-28T09:26:07;41.97;;;27.63;;
65461;SDS011;53236;43.666;18.444;2023-02-28T09:28:33;24.47;;;16.63;;
65461;SDS011;53236;43.666;18.444;2023-02-28T09:30:59;21.77;;;14.97;;
65461;SDS011;53236;43.666;18.444;2023-02-28T09:33:24;16.20;;;11.27;;
65461;SDS011;53236;43.666;18.444;2023-02-28T09:35:51;18.00;;;13.50;;
65461;SDS011;53236;43.666;18.444;2023-02-28T09:38:24;15.87;;;12.07;;
65461;SDS011;53236;43.666;18.444;2023-02-28T09:40:50;20.77;;;14.73;;
65461;SDS011;53236;43.666;18.444;2023-02-28T09:43:20;16.07;;;11.20;;
65461;SDS011;53236;43.666;18.444;2023-02-28T09:45:56;18.50;;;13.53;;
65461;SDS011;53236;43.666;18.444;2023-02-28T09:48:39;16.47;;;11.53;;
65461;SDS011;53236;43.666;18.444;2023-02-28T09:51:23;16.03;;;10.73;;
65461;SDS011;53236;43.666;18.444;2023-02-28T09:53:59;19.90;;;12.37;;
65461;SDS011;53236;43.666;18.444;2023-02-28T09:56:26;15.87;;;11.87;;
65461;SDS011;53236;43.666;18.444;2023-02-28T10:06:50;17.93;;;12.77;;
65461;SDS011;53236;43.666;18.444;2023-02-28T10:11:50;23.47;;;13.10;;
65461;SDS011;53236;43.666;18.444;2023-02-28T10:14:19;21.90;;;14.00;;
65461;SDS011;53236;43.666;18.444;2023-02-28T10:19:27;24.33;;;15.43;;
65461;SDS011;53236;43.666;18.444;2023-02-28T10:24:51;17.80;;;12.23;;
65461;SDS011;53236;43.666;18.444;2023-02-28T10:27:20;24.17;;;15.17;;
65461;SDS011;53236;43.666;18.444;2023-02-28T10:29:48;29.80;;;19.20;;
65461;SDS011;53236;43.666;18.444;2023-02-28T10:32:16;22.93;;;16.07;;
65461;SDS011;53236;43.666;18.444;2023-02-28T10:34:44;24.17;;;17.20;;
65461;SDS011;53236;43.666;18.444;2023-02-28T10:37:12;29.37;;;19.83;;
65461;SDS011;53236;43.666;18.444;2023-02-28T10:39:45;33.00;;;21.53;;
65461;SDS011;53236;43.666;18.444;2023-02-28T10:42:19;28.70;;;19.80;;
65461;SDS011;53236;43.666;18.444;2023-02-28T10:44:52;31.70;;;22.07;;
65461;SDS011;53236;43.666;18.444;2023-02-28T10:47:40;28.40;;;22.17;;
65461;SDS011;53236;43.666;18.444;2023-02-28T10:53:17;35.43;;;22.87;;
65461;SDS011;53236;43.666;18.444;2023-02-28T11:04:31;31.57;;;20.97;;
65461;SDS011;53236;43.666;18.444;2023-02-28T11:12:04;30.97;;;20.03;;
65461;SDS011;53236;43.666;18.444;2023-02-28T11:14:48;35.00;;;21.37;;
65461;SDS011;53236;43.666;18.444;2023-02-28T11:17:27;32.53;;;20.50;;
65461;SDS011;53236;43.666;18.444;2023-02-28T11:19:58;35.50;;;22.07;;
65461;SDS011;53236;43.666;18.444;2023-02-28T11:22:35;40.97;;;23.27;;
65461;SDS011;53236;43.666;18.444;2023-02-28T11:25:15;34.43;;;21.63;;
65461;SDS011;53236;43.666;18.444;2023-02-28T11:28:08;40.03;;;25.07;;
65461;SDS011;53236;43.666;18.444;2023-02-28T11:38:50;38.97;;;24.07;;
65461;SDS011;53236;43.666;18.444;2023-02-28T11:52:00;42.90;;;28.57;;
65461;SDS011;53236;43.666;18.444;2023-02-28T11:54:52;38.93;;;25.43;;
65461;SDS011;53236;43.666;18.444;2023-02-28T12:00:44;44.70;;;30.20;;
65461;SDS011;53236;43.666;18.444;2023-02-28T12:11:54;61.00;;;39.17;;
65461;SDS011;53236;43.666;18.444;2023-02-28T12:25:13;58.67;;;34.87;;
65461;SDS011;53236;43.666;18.444;2023-02-28T12:27:44;57.93;;;35.03;;
65461;SDS011;53236;43.666;18.444;2023-02-28T12:35:59;54.07;;;33.53;;
65461;SDS011;53236;43.666;18.444;2023-02-28T12:38:31;57.97;;;34.73;;
65461;SDS011;53236;43.666;18.444;2023-02-28T12:41:04;146.33;;;82.53;;
65461;SDS011;53236;43.666;18.444;2023-02-28T12:43:57;68.30;;;43.43;;
65461;SDS011;53236;43.666;18.444;2023-02-28T12:46:37;146.73;;;106.67;;
65461;SDS011;53236;43.666;18.444;2023-02-28T12:49:15;63.23;;;40.03;;
65461;SDS011;53236;43.666;18.444;2023-02-28T12:51:46;57.13;;;35.43;;
65461;SDS011;53236;43.666;18.444;2023-02-28T13:00:36;58.63;;;36.33;;
65461;SDS011;53236;43.666;18.444;2023-02-28T13:06:01;53.33;;;33.90;;
65461;SDS011;53236;43.666;18.444;2023-02-28T13:08:57;56.07;;;33.93;;
65461;SDS011;53236;43.666;18.444;2023-02-28T13:14:03;57.10;;;33.67;;
65461;SDS011;53236;43.666;18.444;2023-02-28T13:16:58;72.20;;;44.47;;
65461;SDS011;53236;43.666;18.444;2023-02-28T13:19:26;64.07;;;39.63;;
65461;SDS011;53236;43.666;18.444;2023-02-28T13:21:57;61.50;;;36.17;;
65461;SDS011;53236;43.666;18.444;2023-02-28T13:24:57;60.43;;;36.20;;
65461;SDS011;53236;43.666;18.444;2023-02-28T13:27:23;59.08;;;34.20;;
65461;SDS011;53236;43.666;18.444;2023-02-28T13:29:56;57.40;;;34.33;;
65461;SDS011;53236;43.666;18.444;2023-02-28T13:50:23;62.87;;;36.90;;
65461;SDS011;53236;43.666;18.444;2023-02-28T14:04:11;99.80;;;54.60;;
65461;SDS011;53236;43.666;18.444;2023-02-28T14:06:52;98.97;;;53.27;;
65461;SDS011;53236;43.666;18.444;2023-02-28T14:09:29;92.90;;;47.33;;
65461;SDS011;53236;43.666;18.444;2023-02-28T14:15:17;79.87;;;43.83;;
65461;SDS011;53236;43.666;18.444;2023-02-28T14:17:52;79.30;;;42.57;;
65461;SDS011;53236;43.666;18.444;2023-02-28T14:20:20;77.53;;;41.10;;
65461;SDS011;53236;43.666;18.444;2023-02-28T14:25:38;73.23;;;42.83;;
65461;SDS011;53236;43.666;18.444;2023-02-28T14:28:27;80.77;;;46.83;;
65461;SDS011;53236;43.666;18.444;2023-02-28T14:31:12;78.72;;;42.85;;
65461;SDS011;53236;43.666;18.444;2023-02-28T14:36:21;78.50;;;44.80;;
65461;SDS011;53236;43.666;18.444;2023-02-28T14:38:57;79.20;;;42.27;;
65461;SDS011;53236;43.666;18.444;2023-02-28T14:41:30;78.63;;;42.77;;
65461;SDS011;53236;43.666;18.444;2023-02-28T14:44:19;77.87;;;43.90;;
65461;SDS011;53236;43.666;18.444;2023-02-28T14:46:46;106.20;;;55.43;;
65461;SDS011;53236;43.666;18.444;2023-02-28T14:52:10;70.70;;;42.00;;
65461;SDS011;53236;43.666;18.444;2023-02-28T14:54:44;76.40;;;44.63;;
65461;SDS011;53236;43.666;18.444;2023-02-28T14:57:21;81.37;;;44.70;;
65461;SDS011;53236;43.666;18.444;2023-02-28T14:59:56;80.37;;;44.60;;
65461;SDS011;53236;43.666;18.444;2023-02-28T15:02:25;86.03;;;46.57;;
65461;SDS011;53236;43.666;18.444;2023-02-28T15:05:01;85.30;;;44.17;;
65461;SDS011;53236;43.666;18.444;2023-02-28T15:07:38;79.00;;;42.33;;
65461;SDS011;53236;43.666;18.444;2023-02-28T15:10:13;77.83;;;40.73;;
65461;SDS011;53236;43.666;18.444;2023-02-28T15:12:48;77.87;;;40.40;;
65461;SDS011;53236;43.666;18.444;2023-02-28T15:15:45;79.73;;;40.80;;
65461;SDS011;53236;43.666;18.444;2023-02-28T15:20:52;89.40;;;47.37;;
65461;SDS011;53236;43.666;18.444;2023-02-28T15:23:19;82.43;;;45.33;;
65461;SDS011;53236;43.666;18.444;2023-02-28T15:25:47;90.13;;;49.60;;
65461;SDS011;53236;43.666;18.444;2023-02-28T15:28:18;86.17;;;47.40;;
65461;SDS011;53236;43.666;18.444;2023-02-28T15:30:52;85.20;;;46.87;;
65461;SDS011;53236;43.666;18.444;2023-02-28T15:33:24;85.50;;;46.27;;
65461;SDS011;53236;43.666;18.444;2023-02-28T15:36:15;82.53;;;46.13;;
65461;SDS011;53236;43.666;18.444;2023-02-28T15:38:46;82.43;;;45.97;;
65461;SDS011;53236;43.666;18.444;2023-02-28T15:46:43;77.07;;;43.67;;
65461;SDS011;53236;43.666;18.444;2023-02-28T15:49:20;83.90;;;44.87;;
65461;SDS011;53236;43.666;18.444;2023-02-28T15:51:48;81.00;;;45.00;;
65461;SDS011;53236;43.666;18.444;2023-02-28T15:54:20;79.60;;;43.57;;
65461;SDS011;53236;43.666;18.444;2023-02-28T15:56:54;81.77;;;43.63;;
65461;SDS011;53236;43.666;18.444;2023-02-28T15:59:26;83.03;;;44.87;;
65461;SDS011;53236;43.666;18.444;2023-02-28T16:02:14;75.47;;;42.33;;
65461;SDS011;53236;43.666;18.444;2023-02-28T16:05:12;79.70;;;43.83;;
65461;SDS011;53236;43.666;18.444;2023-02-28T16:08:15;78.80;;;42.30;;
65461;SDS011;53236;43.666;18.444;2023-02-28T16:10:41;86.23;;;44.30;;
65461;SDS011;53236;43.666;18.444;2023-02-28T16:13:08;79.17;;;42.00;;
65461;SDS011;53236;43.666;18.444;2023-02-28T16:15:41;74.53;;;40.50;;
65461;SDS011;53236;43.666;18.444;2023-02-28T16:18:08;78.67;;;41.57;;
65461;SDS011;53236;43.666;18.444;2023-02-28T16:20:37;78.03;;;42.20;;
65461;SDS011;53236;43.666;18.444;2023-02-28T16:23:03;81.97;;;45.43;;
65461;SDS011;53236;43.666;18.444;2023-02-28T16:25:33;83.77;;;44.20;;
65461;SDS011;53236;43.666;18.444;2023-02-28T16:28:01;80.27;;;41.77;;
65461;SDS011;53236;43.666;18.444;2023-02-28T16:30:28;82.30;;;45.17;;
65461;SDS011;53236;43.666;18.444;2023-02-28T16:32:57;81.17;;;42.30;;
65461;SDS011;53236;43.666;18.444;2023-02-28T16:35:23;86.53;;;43.50;;
65461;SDS011;53236;43.666;18.444;2023-02-28T16:37:52;88.70;;;45.20;;
65461;SDS011;53236;43.666;18.444;2023-02-28T16:40:20;83.10;;;43.80;;
65461;SDS011;53236;43.666;18.444;2023-02-28T16:42:53;90.70;;;46.23;;
65461;SDS011;53236;43.666;18.444;2023-02-28T16:45:27;86.63;;;46.17;;
65461;SDS011;53236;43.666;18.444;2023-02-28T16:47:53;97.00;;;52.40;;
65461;SDS011;53236;43.666;18.444;2023-02-28T16:50:21;81.53;;;46.63;;
65461;SDS011;53236;43.666;18.444;2023-02-28T16:52:49;91.40;;;45.40;;
65461;SDS011;53236;43.666;18.444;2023-02-28T16:55:17;84.50;;;42.70;;
65461;SDS011;53236;43.666;18.444;2023-02-28T16:57:44;78.83;;;40.20;;
65461;SDS011;53236;43.666;18.444;2023-02-28T17:00:17;80.97;;;40.47;;
65461;SDS011;53236;43.666;18.444;2023-02-28T17:02:43;77.93;;;38.70;;
65461;SDS011;53236;43.666;18.444;2023-02-28T17:05:10;74.93;;;38.23;;
65461;SDS011;53236;43.666;18.444;2023-02-28T17:07:37;85.67;;;43.10;;
65461;SDS011;53236;43.666;18.444;2023-02-28T17:10:14;86.07;;;41.20;;
65461;SDS011;53236;43.666;18.444;2023-02-28T17:12:42;83.43;;;40.00;;
65461;SDS011;53236;43.666;18.444;2023-02-28T17:15:09;82.47;;;38.67;;
65461;SDS011;53236;43.666;18.444;2023-02-28T17:17:36;105.47;;;45.63;;
65461;SDS011;53236;43.666;18.444;2023-02-28T17:20:02;98.03;;;44.60;;
65461;SDS011;53236;43.666;18.444;2023-02-28T17:22:29;106.03;;;48.97;;